createdAt,value
2019-01-28T00:00:45.937Z,66.70
2019-01-28T00:03:20.374Z,66.62
2019-01-28T00:05:52.651Z,66.37
2019-01-28T00:08:24.849Z,66.52
2019-01-28T00:10:56.896Z,66.54
2019-01-28T00:13:29.144Z,66.55
2019-01-28T00:16:01.225Z,66.65
2019-01-28T00:18:33.408Z,66.53
2019-01-28T00:21:05.663Z,66.56
2019-01-28T00:23:37.732Z,66.35
2019-01-28T00:26:09.891Z,66.55
2019-01-28T00:28:42.063Z,66.44
2019-01-28T00:31:14.215Z,66.54
2019-01-28T00:33:46.409Z,66.57
2019-01-28T00:36:18.645Z,66.50
2019-01-28T00:38:50.761Z,66.61
2019-01-28T00:41:22.919Z,66.42
2019-01-28T00:43:55.058Z,66.60
2019-01-28T00:46:27.353Z,66.47
2019-01-28T00:49:00.394Z,66.53
2019-01-28T00:51:32.538Z,66.54
2019-01-28T00:54:04.880Z,66.63
2019-01-28T00:56:36.916Z,66.69
2019-01-28T00:59:09.162Z,66.69
2019-01-28T01:01:41.257Z,66.67
2019-01-28T01:04:13.393Z,66.73
2019-01-28T01:06:45.623Z,66.74
2019-01-28T01:09:17.769Z,66.58
2019-01-28T01:11:49.928Z,66.63
2019-01-28T01:14:22.184Z,66.66
2019-01-28T01:16:54.324Z,66.76
2019-01-28T01:19:26.392Z,66.80
2019-01-28T01:21:58.594Z,66.75
2019-01-28T01:24:30.718Z,66.78
2019-01-28T01:27:03.047Z,66.58
2019-01-28T01:29:35.274Z,66.78
2019-01-28T01:32:08.689Z,66.59
2019-01-28T01:34:40.852Z,66.72
2019-01-28T01:37:13.033Z,66.66
2019-01-28T01:39:45.334Z,66.68
2019-01-28T01:42:17.629Z,66.79
2019-01-28T01:44:49.789Z,66.65
2019-01-28T01:47:21.978Z,66.76
2019-01-28T01:49:54.213Z,66.69
2019-01-28T01:52:26.208Z,66.84
2019-01-28T01:54:58.596Z,66.70
2019-01-28T01:57:30.900Z,66.61
2019-01-28T02:00:03.212Z,66.84
2019-01-28T02:02:35.500Z,66.70
2019-01-28T02:05:07.881Z,66.79
2019-01-28T02:07:40.314Z,66.79
2019-01-28T02:10:13.560Z,66.79
2019-01-28T02:12:45.885Z,66.70
2019-01-28T02:15:18.824Z,66.71
2019-01-28T02:17:51.072Z,66.59
2019-01-28T02:20:23.389Z,66.22
2019-01-28T02:22:55.562Z,65.51
2019-01-28T02:25:27.745Z,65.80
2019-01-28T02:27:59.908Z,65.96
2019-01-28T02:30:32.224Z,65.95
2019-01-28T02:33:04.469Z,65.85
2019-01-28T02:35:36.656Z,65.88
2019-01-28T02:38:08.828Z,65.90
2019-01-28T02:40:41.354Z,65.84
2019-01-28T02:43:13.440Z,65.63
2019-01-28T02:45:45.750Z,65.67
2019-01-28T02:48:17.900Z,65.66
2019-01-28T02:50:50.267Z,65.60
2019-01-28T02:53:22.457Z,65.59
2019-01-28T02:55:54.839Z,65.60
2019-01-28T02:58:27.991Z,65.55
2019-01-28T03:01:00.412Z,65.44
2019-01-28T03:03:32.506Z,65.52
2019-01-28T03:06:04.844Z,65.41
2019-01-28T03:08:37.003Z,65.39
2019-01-28T03:11:10.579Z,65.38
2019-01-28T03:13:42.688Z,65.40
2019-01-28T03:16:15.228Z,65.40
2019-01-28T03:18:47.906Z,65.24
2019-01-28T03:21:20.314Z,65.32
2019-01-28T03:23:52.412Z,65.41
2019-01-28T03:26:24.796Z,65.55
2019-01-28T03:28:57.056Z,65.18
2019-01-28T03:31:29.549Z,64.45
2019-01-28T03:34:01.677Z,64.68
2019-01-28T03:36:34.008Z,64.65
2019-01-28T03:39:06.981Z,64.70
2019-01-28T03:41:39.451Z,64.62
2019-01-28T03:44:11.623Z,64.56
2019-01-28T03:46:44.048Z,64.47
2019-01-28T03:49:16.502Z,64.57
2019-01-28T03:51:48.936Z,64.55
2019-01-28T03:54:21.280Z,64.59
2019-01-28T03:56:53.598Z,64.45
2019-01-28T03:59:25.590Z,64.41
2019-01-28T04:01:57.948Z,64.40
2019-01-28T04:04:30.242Z,64.37
2019-01-28T04:07:02.399Z,64.46
2019-01-28T04:09:34.874Z,64.43
2019-01-28T04:12:07.216Z,64.37
2019-01-28T04:14:39.362Z,62.73
2019-01-28T04:17:11.568Z,62.41
2019-01-28T04:19:43.801Z,62.55
2019-01-28T04:22:16.007Z,61.57
2019-01-28T04:24:48.730Z,61.83
2019-01-28T04:27:20.887Z,60.60
2019-01-28T04:29:53.168Z,61.63
2019-01-28T04:32:25.342Z,60.96
2019-01-28T04:34:57.708Z,61.42
2019-01-28T04:37:29.802Z,61.40
2019-01-28T04:40:03.119Z,61.59
2019-01-28T04:42:35.431Z,61.40
2019-01-28T04:45:08.148Z,61.29
2019-01-28T04:47:40.424Z,61.22
2019-01-28T04:50:13.411Z,61.33
2019-01-28T04:52:45.692Z,60.98
2019-01-28T04:55:17.772Z,61.07
2019-01-28T04:57:49.761Z,61.03
2019-01-28T05:00:22.722Z,61.24
2019-01-28T05:02:54.994Z,61.08
2019-01-28T05:05:27.033Z,61.42
2019-01-28T05:08:00.379Z,61.51
2019-01-28T05:10:33.508Z,61.57
2019-01-28T05:13:06.691Z,61.78
2019-01-28T05:15:38.901Z,61.63
2019-01-28T05:18:11.071Z,61.97
2019-01-28T05:20:43.411Z,61.28
2019-01-28T05:23:15.595Z,62.13
2019-01-28T05:25:47.884Z,62.11
2019-01-28T05:28:20.041Z,62.09
2019-01-28T05:30:52.314Z,62.30
2019-01-28T05:33:24.558Z,62.14
2019-01-28T05:35:56.737Z,61.92
2019-01-28T05:38:28.937Z,61.61
2019-01-28T05:41:01.197Z,61.37
2019-01-28T05:43:33.458Z,61.08
2019-01-28T05:46:05.727Z,61.33
2019-01-28T05:48:37.955Z,61.12
2019-01-28T05:51:10.240Z,61.18
2019-01-28T05:53:42.301Z,61.38
2019-01-28T05:56:14.485Z,61.35
2019-01-28T05:58:46.615Z,61.16
2019-01-28T06:01:18.955Z,61.27
2019-01-28T06:03:51.163Z,61.57
2019-01-28T06:06:23.447Z,61.69
2019-01-28T06:08:55.672Z,61.77
2019-01-28T06:11:27.829Z,61.67
2019-01-28T06:14:00.065Z,61.71
2019-01-28T06:16:32.364Z,61.82
2019-01-28T06:19:04.496Z,61.83
2019-01-28T06:21:36.643Z,61.84
2019-01-28T06:24:08.915Z,61.79
2019-01-28T06:26:41.161Z,61.80
2019-01-28T06:29:13.447Z,61.83
2019-01-28T06:31:45.570Z,61.86
2019-01-28T06:34:17.705Z,61.53
2019-01-28T06:36:49.963Z,61.73
2019-01-28T06:39:22.036Z,61.96
2019-01-28T06:41:54.263Z,61.39
2019-01-28T06:44:27.399Z,61.29
2019-01-28T06:46:59.533Z,60.80
2019-01-28T06:49:32.712Z,60.89
2019-01-28T06:52:05.017Z,60.53
2019-01-28T06:54:37.192Z,60.49
2019-01-28T06:57:09.627Z,60.55
2019-01-28T06:59:41.801Z,60.08
2019-01-28T07:02:13.996Z,59.74
2019-01-28T07:04:46.175Z,59.77
2019-01-28T07:07:18.459Z,59.92
2019-01-28T07:09:50.706Z,59.95
2019-01-28T07:12:22.978Z,60.15
2019-01-28T07:14:55.226Z,60.26
2019-01-28T07:17:27.514Z,60.54
2019-01-28T07:19:59.721Z,60.39
2019-01-28T07:22:32.034Z,60.42
2019-01-28T07:25:04.259Z,60.51
2019-01-28T07:27:36.566Z,60.70
2019-01-28T07:30:10.381Z,60.73
2019-01-28T07:32:42.964Z,60.79
2019-01-28T07:35:15.319Z,61.00
2019-01-28T07:37:48.575Z,62.10
2019-01-28T07:40:20.742Z,62.23
2019-01-28T07:42:52.931Z,62.22
2019-01-28T07:45:29.025Z,62.24
2019-01-28T07:48:03.156Z,62.42
2019-01-28T07:50:34.682Z,62.55
2019-01-28T07:53:07.009Z,62.55
2019-01-28T07:55:39.091Z,62.62
2019-01-28T07:58:11.265Z,62.49
2019-01-28T08:00:43.457Z,62.55
2019-01-28T08:03:15.664Z,62.51
2019-01-28T08:05:51.465Z,62.40
2019-01-28T08:08:23.539Z,62.35
2019-01-28T08:10:55.845Z,62.40
2019-01-28T08:13:28.455Z,62.38
2019-01-28T08:16:00.885Z,62.39
2019-01-28T08:18:33.012Z,62.38
2019-01-28T08:21:05.330Z,62.44
2019-01-28T08:23:38.447Z,62.20
2019-01-28T08:26:10.669Z,62.12
2019-01-28T08:28:42.795Z,62.12
2019-01-28T08:31:14.981Z,62.28
2019-01-28T08:33:47.136Z,62.20
2019-01-28T08:36:19.675Z,62.27
2019-01-28T08:38:51.897Z,62.38
2019-01-28T08:41:24.313Z,62.26
2019-01-28T08:43:56.525Z,62.23
2019-01-28T08:46:30.251Z,62.16
2019-01-28T08:49:02.497Z,62.20
2019-01-28T08:51:34.657Z,62.17
2019-01-28T08:54:06.786Z,61.80
2019-01-28T08:56:39.113Z,61.58
2019-01-28T08:59:11.298Z,61.16
2019-01-28T09:01:43.641Z,61.57
2019-01-28T09:04:16.028Z,61.52
2019-01-28T09:06:48.104Z,60.37
2019-01-28T09:09:20.392Z,60.04
2019-01-28T09:11:52.727Z,60.11
2019-01-28T09:14:25.096Z,59.96
2019-01-28T09:16:57.246Z,59.88
2019-01-28T09:19:29.633Z,59.55
2019-01-28T09:22:01.769Z,59.48
2019-01-28T09:24:34.126Z,59.52
2019-01-28T09:27:06.694Z,59.52
2019-01-28T09:29:39.917Z,59.26
2019-01-28T09:32:12.072Z,59.17
2019-01-28T09:34:44.540Z,58.92
2019-01-28T09:37:16.818Z,59.01
2019-01-28T09:39:49.267Z,58.77
2019-01-28T09:42:21.445Z,58.61
2019-01-28T09:44:53.749Z,58.87
2019-01-28T09:47:25.779Z,58.72
2019-01-28T09:49:58.054Z,58.73
2019-01-28T09:52:30.122Z,58.65
2019-01-28T09:55:02.502Z,58.06
2019-01-28T09:57:34.721Z,59.03
2019-01-28T10:00:08.827Z,58.28
2019-01-28T10:02:41.150Z,58.17
2019-01-28T10:05:13.513Z,57.87
2019-01-28T10:07:45.526Z,57.32
2019-01-28T10:10:18.426Z,57.13
2019-01-28T10:12:50.664Z,57.21
2019-01-28T10:15:28.467Z,56.89
2019-01-28T10:17:57.316Z,56.52
2019-01-28T10:20:33.389Z,56.85
2019-01-28T10:23:05.660Z,56.90
2019-01-28T10:25:37.868Z,56.56
2019-01-28T10:28:10.201Z,56.59
2019-01-28T10:30:42.858Z,56.80
2019-01-28T10:33:15.151Z,57.08
2019-01-28T10:35:47.586Z,57.22
2019-01-28T10:38:19.927Z,57.40
2019-01-28T10:40:52.095Z,57.61
2019-01-28T10:43:24.674Z,57.81
2019-01-28T10:45:58.300Z,58.08
2019-01-28T10:48:30.633Z,58.20
2019-01-28T10:51:02.785Z,58.22
2019-01-28T10:53:36.058Z,58.43
2019-01-28T10:56:08.416Z,58.65
2019-01-28T10:58:40.686Z,58.82
2019-01-28T11:01:12.756Z,58.99
2019-01-28T11:03:45.004Z,59.27
2019-01-28T11:06:17.169Z,59.35
2019-01-28T11:08:49.295Z,59.50
2019-01-28T11:11:21.508Z,59.65
2019-01-28T11:13:53.900Z,59.76
2019-01-28T11:16:26.173Z,59.94
2019-01-28T11:18:59.560Z,60.02
2019-01-28T11:21:31.825Z,60.14
2019-01-28T11:24:04.025Z,60.29
2019-01-28T11:26:36.123Z,60.26
2019-01-28T11:29:08.242Z,60.21
2019-01-28T11:31:40.500Z,60.40
2019-01-28T11:34:12.790Z,60.36
2019-01-28T11:36:45.201Z,60.60
2019-01-28T11:39:17.615Z,60.69
2019-01-28T11:41:50.052Z,60.68
2019-01-28T11:44:22.455Z,60.91
2019-01-28T11:46:54.737Z,60.98
2019-01-28T11:49:26.991Z,61.03
2019-01-28T11:51:59.274Z,61.14
2019-01-28T11:54:31.471Z,61.17
2019-01-28T11:57:03.740Z,61.20
2019-01-28T11:59:35.977Z,61.31
2019-01-28T12:02:08.278Z,61.27
2019-01-28T12:04:40.491Z,61.35
2019-01-28T12:07:12.854Z,61.43
2019-01-28T12:09:45.052Z,61.53
2019-01-28T12:12:17.313Z,61.62
2019-01-28T12:14:49.607Z,61.64
2019-01-28T12:17:22.240Z,61.74
2019-01-28T12:19:54.377Z,61.82
2019-01-28T12:22:26.556Z,61.86
2019-01-28T12:24:58.845Z,61.95
2019-01-28T12:27:31.605Z,61.81
2019-01-28T12:30:03.713Z,62.11
2019-01-28T12:32:36.000Z,61.86
2019-01-28T12:35:08.077Z,61.85
2019-01-28T12:37:40.276Z,62.27
2019-01-28T12:40:12.455Z,62.30
2019-01-28T12:42:45.664Z,62.05
2019-01-28T12:45:18.534Z,62.23
2019-01-28T12:47:50.866Z,62.44
2019-01-28T12:50:23.180Z,62.45
2019-01-28T12:52:55.392Z,62.33
2019-01-28T12:55:28.439Z,61.54
2019-01-28T12:58:01.244Z,60.63
2019-01-28T13:00:56.002Z,60.96
2019-01-28T13:03:28.269Z,59.91
2019-01-28T13:06:00.444Z,60.42
2019-01-28T13:08:32.658Z,60.82
2019-01-28T13:11:04.999Z,60.63
2019-01-28T13:13:41.156Z,59.61
2019-01-28T13:16:11.248Z,60.89
2019-01-28T13:18:43.372Z,58.81
2019-01-28T13:21:15.503Z,59.86
2019-01-28T13:23:47.747Z,60.54
2019-01-28T13:26:20.073Z,60.10
2019-01-28T13:28:52.388Z,59.88
2019-01-28T13:31:24.435Z,59.79
2019-01-28T13:33:56.615Z,59.42
2019-01-28T13:36:28.796Z,59.45
2019-01-28T13:39:00.918Z,60.25
2019-01-28T13:41:33.465Z,59.78
2019-01-28T13:44:05.607Z,59.62
2019-01-28T13:46:37.667Z,59.52
2019-01-28T13:49:09.865Z,59.64
2019-01-28T13:51:42.004Z,58.93
2019-01-28T13:54:14.132Z,60.00
2019-01-28T13:56:46.699Z,59.18
2019-01-28T13:59:19.644Z,57.11
2019-01-28T14:01:51.775Z,55.58
2019-01-28T14:04:23.988Z,59.63
2019-01-28T14:07:00.032Z,59.67
2019-01-28T14:09:32.297Z,59.80
2019-01-28T14:12:04.696Z,59.82
2019-01-28T14:14:36.815Z,59.84
2019-01-28T14:17:08.957Z,59.89
2019-01-28T14:19:46.256Z,60.14
2019-01-28T14:22:15.031Z,60.28
2019-01-28T14:24:47.122Z,60.40
2019-01-28T14:27:19.508Z,60.65
2019-01-28T14:29:52.984Z,60.55
2019-01-28T14:32:25.099Z,60.67
2019-01-28T14:34:58.222Z,60.82
2019-01-28T14:37:30.503Z,60.85
2019-01-28T14:40:02.592Z,61.07
2019-01-28T14:42:35.122Z,61.21
2019-01-28T14:45:07.541Z,61.16
2019-01-28T14:47:39.790Z,61.34
2019-01-28T14:50:14.234Z,61.31
2019-01-28T14:52:46.373Z,61.49
2019-01-28T14:55:21.507Z,61.45
2019-01-28T14:57:53.634Z,61.62
2019-01-28T15:00:27.288Z,61.63
2019-01-28T15:02:59.445Z,61.75
2019-01-28T15:05:32.749Z,61.41
2019-01-28T15:08:05.115Z,61.69
2019-01-28T15:10:37.399Z,61.78
2019-01-28T15:13:09.529Z,61.82
2019-01-28T15:15:41.866Z,62.04
2019-01-28T15:18:15.394Z,62.05
2019-01-28T15:20:47.498Z,62.04
2019-01-28T15:23:19.639Z,62.03
2019-01-28T15:25:51.816Z,62.06
2019-01-28T15:28:23.955Z,62.09
2019-01-28T15:30:56.151Z,62.08
2019-01-28T15:33:28.395Z,62.15
2019-01-28T15:36:00.458Z,61.98
2019-01-28T15:38:32.729Z,61.93
2019-01-28T15:41:04.806Z,62.00
2019-01-28T15:43:37.300Z,61.97
2019-01-28T15:46:09.479Z,62.02
2019-01-28T15:48:41.619Z,62.01
2019-01-28T15:51:13.698Z,61.96
2019-01-28T15:53:45.838Z,61.98
2019-01-28T15:56:17.952Z,61.90
2019-01-28T15:58:50.156Z,61.32
2019-01-28T16:01:23.343Z,60.08
2019-01-28T16:03:55.534Z,60.40
2019-01-28T16:06:27.699Z,60.45
2019-01-28T16:08:59.871Z,60.26
2019-01-28T16:11:33.116Z,60.22
2019-01-28T16:14:05.114Z,60.06
2019-01-28T16:16:37.244Z,59.82
2019-01-28T16:19:09.621Z,59.93
2019-01-28T16:21:42.981Z,59.94
2019-01-28T16:24:15.160Z,59.86
2019-01-28T16:26:47.516Z,59.80
2019-01-28T16:29:19.563Z,59.88
2019-01-28T16:31:51.734Z,59.77
2019-01-28T16:34:24.008Z,59.83
2019-01-28T16:36:56.061Z,59.78
2019-01-28T16:39:28.311Z,59.63
2019-01-28T16:42:00.599Z,59.61
2019-01-28T16:44:32.924Z,59.40
2019-01-28T16:47:05.027Z,59.30
2019-01-28T16:49:37.213Z,59.53
2019-01-28T16:52:09.336Z,59.65
2019-01-28T16:54:41.514Z,59.58
2019-01-28T16:57:13.836Z,59.74
2019-01-28T16:59:45.896Z,59.76
2019-01-28T17:02:18.173Z,59.73
2019-01-28T17:04:50.504Z,59.82
2019-01-28T17:07:22.789Z,59.64
2019-01-28T17:09:55.033Z,59.55
2019-01-28T17:12:27.517Z,57.92
2019-01-28T17:14:59.681Z,59.21
2019-01-28T17:17:31.827Z,59.61
2019-01-28T17:20:03.996Z,58.73
2019-01-28T17:22:36.177Z,58.58
2019-01-28T17:25:09.466Z,58.26
2019-01-28T17:27:41.763Z,57.98
2019-01-28T17:30:16.656Z,57.97
2019-01-28T17:32:48.769Z,58.30
2019-01-28T17:35:21.017Z,58.20
2019-01-28T17:37:53.247Z,58.56
2019-01-28T17:40:25.401Z,58.36
2019-01-28T17:42:57.526Z,58.28
2019-01-28T17:45:29.909Z,58.48
2019-01-28T17:48:02.358Z,58.76
2019-01-28T17:50:34.508Z,58.50
2019-01-28T17:53:06.709Z,58.67
2019-01-28T17:55:38.836Z,58.73
2019-01-28T17:58:11.441Z,58.85
2019-01-28T18:00:48.305Z,59.05
2019-01-28T18:03:20.479Z,58.88
2019-01-28T18:05:52.649Z,59.13
2019-01-28T18:08:25.043Z,59.26
2019-01-28T18:10:57.155Z,59.27
2019-01-28T18:13:29.299Z,59.42
2019-01-28T18:16:01.600Z,59.26
2019-01-28T18:18:33.919Z,59.67
2019-01-28T18:21:06.062Z,59.46
2019-01-28T18:23:54.280Z,59.38
2019-01-28T18:26:26.445Z,59.73
2019-01-28T18:28:58.579Z,59.64
2019-01-28T18:31:30.644Z,59.73
2019-01-28T18:34:02.734Z,59.71
2019-01-28T18:36:34.789Z,59.65
2019-01-28T18:39:09.243Z,59.72
2019-01-28T18:41:41.457Z,59.74
2019-01-28T18:44:13.856Z,59.80
2019-01-28T18:46:46.017Z,59.88
2019-01-28T18:49:18.508Z,59.81
2019-01-28T18:51:50.788Z,59.92
2019-01-28T18:54:22.917Z,59.76
2019-01-28T18:56:56.213Z,59.60
2019-01-28T18:59:28.570Z,59.55
2019-01-28T19:02:00.559Z,59.58
2019-01-28T19:04:32.715Z,59.71
2019-01-28T19:07:28.954Z,59.67
2019-01-28T19:10:13.140Z,59.68
2019-01-28T19:13:01.885Z,59.35
2019-01-28T19:15:49.274Z,59.38
2019-01-28T19:18:52.308Z,59.37
2019-01-28T19:21:36.706Z,59.53
2019-01-28T19:24:08.853Z,59.45
2019-01-28T19:26:42.513Z,59.46
2019-01-28T19:29:14.776Z,59.35
2019-01-28T19:31:47.023Z,60.07
2019-01-28T19:34:19.439Z,59.94
2019-01-28T19:36:52.354Z,60.38
2019-01-28T19:39:24.641Z,60.69
2019-01-28T19:41:56.955Z,60.66
2019-01-28T19:44:29.004Z,60.73
2019-01-28T19:47:01.433Z,60.72
2019-01-28T19:49:33.511Z,60.97
2019-01-28T19:52:05.666Z,61.05
2019-01-28T19:54:37.664Z,61.37
2019-01-28T19:57:10.392Z,61.43
2019-01-28T19:59:42.438Z,61.85
2019-01-28T20:02:14.816Z,62.26
2019-01-28T20:04:46.934Z,62.47
2019-01-28T20:07:19.160Z,62.77
2019-01-28T20:09:52.055Z,62.72
2019-01-28T20:12:25.261Z,62.97
2019-01-28T20:14:57.541Z,63.06
2019-01-28T20:17:29.723Z,63.28
2019-01-28T20:20:01.890Z,63.28
2019-01-28T20:22:33.961Z,63.33
2019-01-28T20:25:06.211Z,63.40
2019-01-28T20:27:38.501Z,63.61
2019-01-28T20:30:21.140Z,63.42
2019-01-28T20:32:53.229Z,63.20
2019-01-28T20:35:25.336Z,63.64
2019-01-28T20:37:57.390Z,63.66
2019-01-28T20:40:29.698Z,63.69
2019-01-28T20:43:01.962Z,63.64
2019-01-28T20:45:34.154Z,63.66
2019-01-28T20:48:06.264Z,63.83
2019-01-28T20:50:38.596Z,63.80
2019-01-28T20:53:11.161Z,63.77
2019-01-28T20:55:43.192Z,63.70
2019-01-28T20:58:15.334Z,63.57
2019-01-28T21:00:47.647Z,63.98
2019-01-28T21:03:19.687Z,64.02
2019-01-28T21:05:51.961Z,64.04
2019-01-28T21:08:24.017Z,63.94
2019-01-28T21:10:56.184Z,63.86
2019-01-28T21:13:28.285Z,64.05
2019-01-28T21:16:00.322Z,63.67
2019-01-28T21:18:32.478Z,64.08
2019-01-28T21:21:04.660Z,64.03
2019-01-28T21:23:36.702Z,64.12
2019-01-28T21:26:08.764Z,64.17
2019-01-28T21:28:42.284Z,64.02
2019-01-28T21:31:14.513Z,64.00
2019-01-28T21:33:46.795Z,63.71
2019-01-28T21:36:32.387Z,63.91
2019-01-28T21:39:05.181Z,64.01
2019-01-28T21:41:38.494Z,63.99
2019-01-28T21:44:10.954Z,63.96
2019-01-28T21:46:44.268Z,63.98
2019-01-28T21:49:16.704Z,64.01
2019-01-28T21:51:50.739Z,64.06
2019-01-28T21:54:25.474Z,64.02
2019-01-28T21:56:57.752Z,63.94
2019-01-28T21:59:29.950Z,64.06
2019-01-28T22:02:02.217Z,64.24
2019-01-28T22:04:34.544Z,63.94
2019-01-28T22:07:06.709Z,63.92
2019-01-28T22:09:38.950Z,64.10
2019-01-28T22:12:12.147Z,63.97
2019-01-28T22:14:44.294Z,63.93
2019-01-28T22:17:16.605Z,64.02
2019-01-28T22:19:48.816Z,63.90
2019-01-28T22:22:21.550Z,64.03
2019-01-28T22:24:53.873Z,63.93
2019-01-28T22:27:26.100Z,64.13
2019-01-28T22:29:58.489Z,64.08
2019-01-28T22:32:30.515Z,64.06
2019-01-28T22:35:02.712Z,63.98
2019-01-28T22:37:34.928Z,64.08
2019-01-28T22:40:07.434Z,64.09
2019-01-28T22:42:39.605Z,64.16
2019-01-28T22:45:13.071Z,64.24
2019-01-28T22:47:45.244Z,64.26
2019-01-28T22:50:17.955Z,64.08
2019-01-28T22:52:50.179Z,64.02
2019-01-28T22:55:22.407Z,63.79
2019-01-28T22:57:54.753Z,63.94
2019-01-28T23:00:54.551Z,64.33
2019-01-28T23:03:27.941Z,64.30
2019-01-28T23:06:00.022Z,64.30
2019-01-28T23:08:32.241Z,64.17
2019-01-28T23:11:04.317Z,64.25
2019-01-28T23:13:37.075Z,64.21
2019-01-28T23:16:09.268Z,64.11
2019-01-28T23:18:41.478Z,64.15
2019-01-28T23:21:13.607Z,64.13
2019-01-28T23:23:46.757Z,64.15
2019-01-28T23:26:19.134Z,64.17
2019-01-28T23:28:51.354Z,64.05
2019-01-28T23:31:23.493Z,64.22
2019-01-28T23:33:55.633Z,64.50
2019-01-28T23:36:27.936Z,64.27
2019-01-28T23:38:59.957Z,64.18
2019-01-28T23:41:32.324Z,64.52
2019-01-28T23:44:04.550Z,64.37
2019-01-28T23:46:37.696Z,64.34
2019-01-28T23:49:10.918Z,64.09
2019-01-28T23:51:43.150Z,64.23
2019-01-28T23:54:15.577Z,64.24
2019-01-28T23:56:47.964Z,64.14
2019-01-28T23:59:20.241Z,64.19
